createdAt,value
2022-11-20T00:00:15.796Z,2.30
2022-11-20T00:03:21.916Z,2.67
2022-11-20T00:06:29.562Z,2.73
2022-11-20T00:09:35.984Z,2.00
2022-11-20T00:12:42.513Z,3.17
2022-11-20T00:15:50.277Z,5.90
2022-11-20T00:18:56.977Z,2.00
2022-11-20T00:22:03.387Z,1.80
2022-11-20T00:25:10.131Z,2.30
2022-11-20T00:28:16.304Z,3.47
2022-11-20T00:31:24.161Z,5.30
2022-11-20T00:34:30.229Z,2.47
2022-11-20T00:37:36.460Z,3.47
2022-11-20T00:40:42.602Z,2.47
2022-11-20T00:43:48.661Z,3.07
2022-11-20T00:46:56.045Z,1.33
2022-11-20T00:50:02.142Z,3.73
2022-11-20T00:53:08.111Z,1.77
2022-11-20T00:56:16.481Z,3.57
2022-11-20T00:59:23.037Z,7.23
2022-11-20T01:02:30.656Z,1.37
2022-11-20T01:05:37.500Z,2.00
2022-11-20T01:08:44.208Z,1.80
2022-11-20T01:11:50.994Z,1.50
2022-11-20T01:14:57.536Z,1.90
2022-11-20T01:18:06.317Z,1.90
2022-11-20T01:21:14.681Z,2.00
2022-11-20T01:24:23.299Z,2.47
2022-11-20T01:27:29.324Z,1.50
2022-11-20T01:30:35.443Z,1.43
2022-11-20T01:33:44.132Z,3.63
2022-11-20T01:36:51.344Z,3.80
2022-11-20T01:39:57.786Z,2.00
2022-11-20T01:43:26.180Z,1.97
2022-11-20T01:46:33.651Z,2.87
2022-11-20T01:49:44.915Z,1.90
2022-11-20T01:52:55.469Z,1.90
2022-11-20T01:56:03.908Z,1.80
2022-11-20T01:59:12.867Z,1.60
2022-11-20T02:02:19.231Z,1.87
2022-11-20T02:05:34.027Z,1.47
2022-11-20T02:08:41.418Z,1.60
2022-11-20T02:11:40.474Z,1.60
2022-11-20T02:14:45.528Z,3.23
2022-11-20T02:17:51.494Z,1.67
2022-11-20T02:21:09.567Z,1.97
2022-11-20T02:24:19.661Z,1.83
2022-11-20T02:27:25.776Z,1.70
2022-11-20T02:30:32.107Z,1.40
2022-11-20T02:33:38.590Z,6.70
2022-11-20T02:36:45.784Z,1.73
2022-11-20T02:39:54.431Z,2.13
2022-11-20T02:43:00.730Z,1.80
2022-11-20T02:46:09.620Z,1.80
2022-11-20T02:49:15.769Z,1.90
2022-11-20T02:52:21.963Z,6.17
2022-11-20T02:55:29.729Z,3.03
2022-11-20T02:58:35.981Z,4.63
2022-11-20T03:01:42.277Z,3.50
2022-11-20T03:04:48.209Z,1.93
2022-11-20T03:07:54.474Z,1.53
2022-11-20T03:11:07.306Z,1.90
2022-11-20T03:14:13.443Z,3.03
2022-11-20T03:17:19.839Z,2.40
2022-11-20T03:20:26.341Z,1.60
2022-11-20T03:23:33.684Z,1.83
2022-11-20T03:26:41.848Z,2.60
2022-11-20T03:29:47.841Z,1.70
2022-11-20T03:32:55.992Z,3.63
2022-11-20T03:36:04.488Z,1.83
2022-11-20T03:39:11.639Z,2.97
2022-11-20T03:42:36.330Z,2.33
2022-11-20T03:45:42.389Z,3.07
2022-11-20T03:48:51.661Z,13.73
2022-11-20T03:51:58.397Z,4.57
2022-11-20T03:55:05.016Z,2.33
2022-11-20T03:58:14.547Z,2.57
2022-11-20T04:01:22.795Z,2.73
2022-11-20T04:04:29.054Z,4.53
2022-11-20T04:07:36.827Z,10.23
2022-11-20T04:10:43.176Z,2.30
2022-11-20T04:13:53.405Z,1.97
2022-11-20T04:16:59.454Z,2.83
2022-11-20T04:20:06.579Z,2.20
2022-11-20T04:23:13.089Z,6.43
2022-11-20T04:26:19.442Z,9.90
2022-11-20T04:29:26.785Z,2.63
2022-11-20T04:32:32.749Z,7.50
2022-11-20T04:35:39.541Z,2.67
2022-11-20T04:38:45.963Z,5.83
2022-11-20T04:42:12.475Z,4.40
2022-11-20T04:45:20.177Z,4.13
2022-11-20T04:48:28.100Z,5.83
2022-11-20T04:51:34.281Z,5.40
2022-11-20T04:54:40.444Z,3.73
2022-11-20T04:57:46.512Z,2.30
2022-11-20T05:00:54.182Z,3.33
2022-11-20T05:04:00.503Z,3.53
2022-11-20T05:07:06.580Z,3.80
2022-11-20T05:10:12.923Z,3.63
2022-11-20T05:13:19.283Z,2.10
2022-11-20T05:16:27.740Z,2.27
2022-11-20T05:19:34.044Z,6.13
2022-11-20T05:22:40.345Z,3.33
2022-11-20T05:25:46.313Z,6.47
2022-11-20T05:28:53.086Z,5.10
2022-11-20T05:32:00.821Z,5.90
2022-11-20T05:35:07.674Z,4.33
2022-11-20T05:38:13.860Z,3.47
2022-11-20T05:41:21.780Z,5.53
2022-11-20T05:44:28.367Z,2.33
2022-11-20T05:47:36.708Z,4.60
2022-11-20T05:50:43.015Z,5.73
2022-11-20T05:53:49.132Z,7.60
2022-11-20T05:56:55.565Z,2.27
2022-11-20T06:00:01.705Z,4.57
2022-11-20T06:03:09.613Z,5.77
2022-11-20T06:06:17.248Z,3.13
2022-11-20T06:09:23.445Z,6.23
2022-11-20T06:12:29.801Z,4.63
2022-11-20T06:15:35.709Z,7.33
2022-11-20T06:18:43.349Z,2.40
2022-11-20T06:21:50.429Z,3.77
2022-11-20T06:24:56.387Z,2.67
2022-11-20T06:28:02.805Z,3.13
2022-11-20T06:31:09.853Z,4.37
2022-11-20T06:34:17.419Z,3.63
2022-11-20T06:37:23.584Z,4.63
2022-11-20T06:40:29.912Z,3.53
2022-11-20T06:43:35.983Z,3.27
2022-11-20T06:46:42.065Z,4.67
2022-11-20T06:49:49.505Z,3.40
2022-11-20T06:52:55.434Z,5.03
2022-11-20T06:56:01.659Z,4.90
2022-11-20T06:59:08.293Z,3.10
2022-11-20T07:02:14.394Z,4.00
2022-11-20T07:05:21.759Z,6.33
2022-11-20T07:08:28.060Z,4.00
2022-11-20T07:11:34.088Z,11.60
2022-11-20T07:14:40.380Z,13.23
2022-11-20T07:17:47.024Z,6.20
2022-11-20T07:20:54.389Z,6.10
2022-11-20T07:24:00.656Z,4.97
2022-11-20T07:27:07.464Z,8.60
2022-11-20T07:30:15.269Z,5.77
2022-11-20T07:33:22.197Z,4.27
2022-11-20T07:36:30.177Z,5.90
2022-11-20T07:39:36.404Z,8.73
2022-11-20T07:42:50.571Z,9.17
2022-11-20T07:45:58.320Z,7.43
2022-11-20T07:49:04.393Z,5.93
2022-11-20T07:52:11.723Z,5.67
2022-11-20T07:55:18.460Z,8.27
2022-11-20T07:58:24.507Z,7.30
2022-11-20T08:01:30.977Z,4.23
2022-11-20T08:04:36.852Z,8.43
2022-11-20T08:07:45.780Z,15.67
2022-11-20T08:10:51.892Z,9.00
2022-11-20T08:14:15.411Z,10.73
2022-11-20T08:17:21.509Z,8.90
2022-11-20T08:20:28.087Z,8.03
2022-11-20T08:23:35.907Z,10.77
2022-11-20T08:26:42.888Z,3.07
2022-11-20T08:29:48.931Z,9.97
2022-11-20T08:32:55.784Z,4.90
2022-11-20T08:36:03.101Z,5.13
2022-11-20T08:39:13.517Z,4.90
2022-11-20T08:42:19.616Z,12.63
2022-11-20T08:45:29.708Z,6.30
2022-11-20T08:48:40.073Z,7.97
2022-11-20T08:51:46.236Z,5.90
2022-11-20T08:54:53.791Z,10.07
2022-11-20T08:58:00.233Z,10.97
2022-11-20T09:01:07.583Z,4.37
2022-11-20T09:04:15.486Z,9.53
2022-11-20T09:07:22.196Z,7.60
2022-11-20T09:10:30.233Z,7.30
2022-11-20T09:13:38.316Z,18.33
2022-11-20T09:16:44.962Z,3.70
2022-11-20T09:19:51.034Z,10.40
2022-11-20T09:22:57.399Z,3.87
2022-11-20T09:26:06.545Z,11.97
2022-11-20T09:29:12.945Z,11.50
2022-11-20T09:32:19.400Z,6.00
2022-11-20T09:35:26.021Z,5.23
2022-11-20T09:38:32.344Z,6.57
2022-11-20T09:41:56.373Z,6.83
2022-11-20T09:45:17.093Z,4.17
2022-11-20T09:48:36.482Z,10.53
2022-11-20T09:51:52.825Z,9.50
2022-11-20T09:55:00.148Z,15.73
2022-11-20T09:58:15.369Z,7.97
2022-11-20T10:01:23.511Z,11.03
2022-11-20T10:04:36.707Z,6.73
2022-11-20T10:07:50.074Z,9.00
2022-11-20T10:11:02.726Z,4.33
2022-11-20T10:14:22.835Z,11.03
2022-11-20T10:17:49.309Z,8.40
2022-11-20T10:21:05.393Z,4.10
2022-11-20T10:24:45.783Z,5.67
2022-11-20T10:28:17.573Z,9.37
2022-11-20T10:31:34.216Z,4.33
2022-11-20T10:34:51.206Z,8.33
2022-11-20T10:38:01.854Z,4.83
2022-11-20T10:41:28.172Z,5.23
2022-11-20T10:44:56.799Z,11.77
2022-11-20T10:48:15.370Z,6.97
2022-11-20T10:51:33.502Z,5.70
2022-11-20T10:54:49.079Z,5.33
2022-11-20T10:58:02.938Z,4.60
2022-11-20T11:01:17.434Z,6.03
2022-11-20T11:04:38.203Z,7.73
2022-11-20T11:07:44.737Z,7.93
2022-11-20T11:10:55.813Z,9.17
2022-11-20T11:14:08.348Z,7.20
2022-11-20T11:17:30.124Z,8.97
2022-11-20T11:20:38.249Z,7.03
2022-11-20T11:23:45.461Z,12.30
2022-11-20T11:26:58.562Z,8.67
2022-11-20T11:30:17.252Z,17.07
2022-11-20T11:33:25.541Z,8.57
2022-11-20T11:36:35.082Z,10.73
2022-11-20T11:39:44.877Z,8.07
2022-11-20T11:42:56.811Z,8.03
2022-11-20T11:46:02.429Z,10.73
2022-11-20T11:49:19.183Z,6.73
2022-11-20T11:52:28.803Z,7.17
2022-11-20T11:55:40.314Z,5.70
2022-11-20T11:58:49.467Z,7.67
2022-11-20T12:02:00.006Z,16.63
2022-11-20T12:05:18.957Z,8.20
2022-11-20T12:08:33.226Z,9.93
2022-11-20T12:11:46.493Z,8.77
2022-11-20T12:14:57.657Z,5.03
2022-11-20T12:18:04.360Z,11.67
2022-11-20T12:21:21.365Z,30.70
2022-11-20T12:24:49.814Z,20.27
2022-11-20T12:28:18.256Z,20.83
2022-11-20T12:31:52.292Z,20.23
2022-11-20T12:35:11.137Z,27.43
2022-11-20T12:38:37.733Z,19.93
2022-11-20T12:42:24.826Z,19.27
2022-11-20T12:45:53.551Z,28.77
2022-11-20T12:49:12.905Z,18.83
2022-11-20T12:52:33.170Z,15.30
2022-11-20T12:55:49.726Z,12.10
2022-11-20T12:59:10.931Z,31.00
2022-11-20T13:02:27.643Z,25.20
2022-11-20T13:05:46.547Z,30.67
2022-11-20T13:08:57.106Z,51.60
2022-11-20T13:12:11.055Z,42.93
2022-11-20T13:15:34.340Z,26.70
2022-11-20T13:18:43.638Z,22.63
2022-11-20T13:21:51.652Z,12.47
2022-11-20T13:24:58.241Z,8.83
2022-11-20T13:28:26.764Z,25.43
2022-11-20T13:31:36.996Z,23.17
2022-11-20T13:34:54.613Z,33.77
2022-11-20T13:38:07.414Z,50.73
2022-11-20T13:41:30.749Z,21.33
2022-11-20T13:44:40.400Z,39.20
2022-11-20T13:47:52.256Z,21.77
2022-11-20T13:51:26.479Z,23.60
2022-11-20T13:54:58.907Z,16.47
2022-11-20T13:58:38.285Z,15.70
2022-11-20T14:01:47.663Z,17.17
2022-11-20T14:04:58.973Z,13.70
2022-11-20T14:08:07.601Z,13.47
2022-11-20T14:11:19.763Z,9.80
2022-11-20T14:14:28.060Z,14.90
2022-11-20T14:17:37.634Z,10.87
2022-11-20T14:20:46.011Z,7.50
2022-11-20T14:23:55.600Z,7.43
2022-11-20T14:27:02.335Z,7.07
2022-11-20T14:30:16.485Z,9.73
2022-11-20T14:33:25.971Z,8.63
2022-11-20T14:36:33.944Z,5.83
2022-11-20T14:39:43.958Z,6.33
2022-11-20T14:42:50.286Z,8.07
2022-11-20T14:46:01.529Z,9.20
2022-11-20T14:49:08.172Z,4.03
2022-11-20T14:52:17.848Z,12.40
2022-11-20T14:55:32.807Z,9.17
2022-11-20T14:58:40.173Z,15.90
2022-11-20T15:01:58.139Z,13.87
2022-11-20T15:05:04.907Z,19.20
2022-11-20T15:08:14.591Z,17.60
2022-11-20T15:11:25.999Z,17.67
2022-11-20T15:14:33.674Z,19.13
2022-11-20T15:17:42.700Z,24.37
2022-11-20T15:20:50.255Z,11.90
2022-11-20T15:23:59.376Z,9.23
2022-11-20T15:27:05.617Z,9.43
2022-11-20T15:30:16.866Z,20.43
2022-11-20T15:33:22.969Z,17.00
2022-11-20T15:36:29.399Z,16.37
2022-11-20T15:39:36.857Z,9.40
2022-11-20T15:43:06.813Z,25.57
2022-11-20T15:46:18.794Z,21.50
2022-11-20T15:49:26.575Z,16.10
2022-11-20T15:52:45.425Z,13.63
2022-11-20T15:55:53.176Z,34.23
2022-11-20T15:58:59.577Z,13.63
2022-11-20T16:02:14.457Z,49.17
2022-11-20T16:05:25.321Z,11.20
2022-11-20T16:08:31.799Z,8.90
2022-11-20T16:11:39.631Z,9.27
2022-11-20T16:15:03.394Z,6.13
2022-11-20T16:18:12.684Z,8.30
2022-11-20T16:21:18.741Z,8.70
2022-11-20T16:24:25.472Z,17.43
2022-11-20T16:27:33.294Z,31.47
2022-11-20T16:30:39.815Z,21.53
2022-11-20T16:33:50.886Z,21.93
2022-11-20T16:36:56.895Z,14.07
2022-11-20T16:40:03.116Z,15.17
2022-11-20T16:43:12.426Z,14.20
2022-11-20T16:46:21.061Z,10.90
2022-11-20T16:49:27.150Z,8.60
2022-11-20T16:52:33.861Z,8.10
2022-11-20T16:55:40.287Z,15.37
2022-11-20T16:58:49.154Z,14.13
2022-11-20T17:01:55.086Z,5.53
2022-11-20T17:05:01.557Z,9.83
2022-11-20T17:08:07.714Z,6.33
2022-11-20T17:11:16.052Z,13.70
2022-11-20T17:14:23.524Z,9.10
2022-11-20T17:17:29.974Z,5.63
2022-11-20T17:20:36.343Z,10.13
2022-11-20T17:23:44.567Z,5.10
2022-11-20T17:26:51.037Z,8.07
2022-11-20T17:29:59.225Z,4.57
2022-11-20T17:33:05.749Z,9.40
2022-11-20T17:36:14.291Z,5.53
2022-11-20T17:39:20.720Z,8.90
2022-11-20T17:42:36.908Z,11.43
2022-11-20T17:45:45.595Z,37.93
2022-11-20T17:48:52.132Z,17.80
2022-11-20T17:51:58.280Z,16.00
2022-11-20T17:55:04.469Z,12.87
2022-11-20T17:58:09.702Z,6.93
2022-11-20T18:01:18.828Z,10.57
2022-11-20T18:04:25.698Z,7.17
2022-11-20T18:07:34.751Z,10.70
2022-11-20T18:10:43.476Z,5.07
2022-11-20T18:14:09.096Z,14.73
2022-11-20T18:17:17.051Z,8.57
2022-11-20T18:20:33.955Z,6.87
2022-11-20T18:23:42.729Z,10.73
2022-11-20T18:26:48.918Z,6.20
2022-11-20T18:29:55.489Z,17.27
2022-11-20T18:33:03.194Z,20.43
2022-11-20T18:36:13.137Z,15.93
2022-11-20T18:39:19.362Z,11.50
2022-11-20T18:42:42.945Z,10.67
2022-11-20T18:45:49.009Z,13.43
2022-11-20T18:48:56.533Z,23.60
2022-11-20T18:52:21.101Z,22.53
2022-11-20T18:55:27.318Z,16.27
2022-11-20T18:58:33.402Z,19.50
2022-11-20T19:01:39.765Z,36.90
2022-11-20T19:04:47.932Z,12.47
2022-11-20T19:07:54.512Z,42.83
2022-11-20T19:11:07.846Z,26.73
2022-11-20T19:14:14.378Z,16.87
2022-11-20T19:17:20.647Z,17.03
2022-11-20T19:20:28.266Z,34.17
2022-11-20T19:23:34.873Z,5.87
2022-11-20T19:26:41.369Z,7.60
2022-11-20T19:29:47.850Z,13.20
2022-11-20T19:32:54.373Z,9.50
2022-11-20T19:36:10.310Z,8.27
2022-11-20T19:39:17.398Z,8.00
2022-11-20T19:42:23.935Z,16.57
2022-11-20T19:45:30.873Z,1.90
2022-11-20T19:48:38.925Z,2.63
2022-11-20T19:51:51.170Z,2.07
2022-11-20T19:54:57.550Z,2.63
2022-11-20T19:58:04.294Z,1.97
2022-11-20T20:01:12.298Z,6.70
2022-11-20T20:04:19.101Z,6.90
2022-11-20T20:07:26.997Z,6.53
2022-11-20T20:10:33.281Z,6.63
2022-11-20T20:13:39.885Z,12.07
2022-11-20T20:16:46.320Z,13.77
2022-11-20T20:19:52.749Z,12.13
2022-11-20T20:23:00.127Z,12.47
2022-11-20T20:26:08.413Z,10.13
2022-11-20T20:29:14.672Z,13.33
2022-11-20T20:32:20.552Z,18.57
2022-11-20T20:35:26.766Z,22.70
2022-11-20T20:38:34.565Z,21.43
2022-11-20T20:41:41.141Z,20.73
2022-11-20T20:45:01.245Z,32.33
2022-11-20T20:48:07.821Z,52.67
2022-11-20T20:51:14.361Z,49.30
2022-11-20T20:54:22.251Z,46.80
2022-11-20T20:57:28.948Z,39.10
2022-11-20T21:00:35.444Z,20.40
2022-11-20T21:03:42.425Z,23.17
2022-11-20T21:06:48.768Z,19.43
2022-11-20T21:09:56.668Z,19.53
2022-11-20T21:13:02.807Z,30.63
2022-11-20T21:16:09.434Z,28.13
2022-11-20T21:19:16.341Z,12.63
2022-11-20T21:22:22.788Z,6.70
2022-11-20T21:25:30.109Z,2.40
2022-11-20T21:28:37.692Z,15.80
2022-11-20T21:31:44.258Z,6.20
2022-11-20T21:34:50.221Z,18.93
2022-11-20T21:37:56.162Z,23.63
2022-11-20T21:41:04.369Z,10.60
2022-11-20T21:47:40.607Z,5.50
2022-11-20T21:50:46.932Z,9.57
2022-11-20T21:53:54.822Z,8.73
2022-11-20T21:57:02.725Z,6.90
2022-11-20T22:00:20.907Z,6.83
2022-11-20T22:03:27.159Z,5.83
2022-11-20T22:06:35.715Z,2.53
2022-11-20T22:09:42.189Z,2.00
2022-11-20T22:12:49.789Z,1.53
2022-11-20T22:16:01.367Z,1.50
2022-11-20T22:19:08.723Z,1.20
2022-11-20T22:22:14.794Z,1.20
2022-11-20T22:25:20.897Z,1.40
2022-11-20T22:28:28.532Z,2.13
2022-11-20T22:31:35.036Z,3.13
2022-11-20T22:34:41.559Z,6.67
2022-11-20T22:37:50.163Z,9.73
2022-11-20T22:41:02.035Z,3.50
2022-11-20T22:44:09.914Z,3.77
2022-11-20T22:47:16.175Z,3.77
2022-11-20T22:50:22.431Z,2.60
2022-11-20T22:53:28.492Z,5.20
2022-11-20T22:56:34.891Z,2.63
2022-11-20T22:59:42.799Z,2.37
2022-11-20T23:02:49.108Z,1.90
2022-11-20T23:05:55.661Z,5.43
2022-11-20T23:09:02.409Z,1.80
2022-11-20T23:12:09.305Z,1.83
2022-11-20T23:15:16.941Z,1.47
2022-11-20T23:18:23.623Z,1.77
2022-11-20T23:21:30.073Z,4.53
2022-11-20T23:24:36.261Z,2.03
2022-11-20T23:27:42.494Z,3.03
2022-11-20T23:30:50.209Z,2.30
2022-11-20T23:33:57.043Z,6.80
2022-11-20T23:37:03.298Z,1.30
2022-11-20T23:40:10.388Z,1.60
2022-11-20T23:43:17.089Z,1.13
2022-11-20T23:46:24.542Z,1.47
2022-11-20T23:49:30.745Z,2.23
2022-11-20T23:52:36.992Z,1.67
2022-11-20T23:55:46.950Z,5.80
2022-11-20T23:58:53.523Z,7.87
